Time;durP1;ratioP1;P1;durP2;ratioP2;P2;SDS_P1;SDS_P2;PMS_P1;PMS_P2;Temp;Humidity;BMP_temperature;BMP_pressure;BME280_temperature;BME280_humidity;BME280_pressure;Samples;Min_cycle;Max_cycle;Signal;HPM_P1;HPM_P2
2021/09/02 00:00:23;;;;;;;14.43;10.35;;;13.70;99.90;;;;;;2080490;28;20469;-68
2021/09/02 00:01:24;;;;;;;13.10;10.05;;;13.70;99.90;;;;;;2080053;28;20021;-68
2021/09/02 00:02:24;;;;;;;15.77;11.30;;;13.70;99.90;;;;;;2080672;28;20025;-69
2021/09/02 00:03:25;;;;;;;12.90;9.57;;;13.70;99.90;;;;;;2080240;28;20052;-69
2021/09/02 00:04:29;;;;;;;14.50;10.95;;;13.70;99.90;;;;;;2080461;28;20030;-69
2021/09/02 00:05:30;;;;;;;13.23;10.02;;;13.70;99.90;;;;;;2082073;28;20352;-68
2021/09/02 00:06:31;;;;;;;12.52;10.15;;;13.60;99.90;;;;;;2080482;28;20029;-69
2021/09/02 00:07:31;;;;;;;12.13;10.82;;;13.70;99.90;;;;;;2080192;28;20083;-69
2021/09/02 00:08:32;;;;;;;12.52;10.10;;;13.60;99.90;;;;;;2080804;28;20021;-69
2021/09/02 00:09:32;;;;;;;16.52;11.60;;;13.60;99.90;;;;;;2080225;28;20025;-69
2021/09/02 00:10:34;;;;;;;14.95;11.07;;;13.60;99.90;;;;;;2081698;28;20041;-68
2021/09/02 00:11:34;;;;;;;12.20;8.85;;;13.60;99.90;;;;;;2082680;28;20477;-69
2021/09/02 00:12:35;;;;;;;15.35;10.32;;;13.60;99.90;;;;;;2082024;28;20737;-69
2021/09/02 00:13:36;;;;;;;15.95;11.07;;;13.60;99.90;;;;;;2080455;28;20026;-69
2021/09/02 00:14:36;;;;;;;15.18;11.63;;;13.60;99.90;;;;;;2080587;28;20052;-69
2021/09/02 00:15:37;;;;;;;11.82;9.45;;;13.60;99.90;;;;;;2080078;28;20118;-69
2021/09/02 00:16:38;;;;;;;14.00;9.80;;;13.50;99.90;;;;;;2080434;28;20029;-69
2021/09/02 00:17:39;;;;;;;13.88;9.60;;;13.50;99.90;;;;;;2080255;28;20025;-69
2021/09/02 00:18:39;;;;;;;15.13;9.75;;;13.60;99.90;;;;;;2080375;28;20021;-69
2021/09/02 00:19:40;;;;;;;11.93;10.38;;;13.50;99.90;;;;;;2080481;28;20386;-69
2021/09/02 00:20:40;;;;;;;13.85;10.20;;;13.50;99.90;;;;;;2080238;28;20032;-69
2021/09/02 00:21:41;;;;;;;13.27;9.80;;;13.50;99.90;;;;;;2080177;28;20359;-69
2021/09/02 00:22:41;;;;;;;14.55;10.70;;;13.50;99.90;;;;;;2079918;28;20032;-68
2021/09/02 00:23:42;;;;;;;13.70;10.60;;;13.50;99.90;;;;;;2080456;28;20465;-69
2021/09/02 00:24:43;;;;;;;11.88;10.00;;;13.50;99.90;;;;;;2080341;28;20053;-69
2021/09/02 00:25:43;;;;;;;12.60;9.43;;;13.50;99.90;;;;;;2083164;28;20075;-68
2021/09/02 00:26:44;;;;;;;12.25;10.25;;;13.40;99.90;;;;;;2080024;28;20485;-69
2021/09/02 00:27:44;;;;;;;10.93;9.57;;;13.50;99.90;;;;;;2080783;28;20064;-69
2021/09/02 00:28:45;;;;;;;12.57;9.93;;;13.40;99.90;;;;;;2080062;28;20085;-68
2021/09/02 00:29:45;;;;;;;12.52;9.45;;;13.40;99.90;;;;;;2084259;28;20073;-69
2021/09/02 00:30:46;;;;;;;11.95;9.13;;;13.40;99.90;;;;;;2080225;28;20024;-68
2021/09/02 00:31:47;;;;;;;11.27;9.55;;;13.40;99.90;;;;;;2079705;28;20030;-69
2021/09/02 00:32:47;;;;;;;12.50;9.25;;;13.40;99.90;;;;;;2080160;28;20018;-69
2021/09/02 00:33:49;;;;;;;9.90;8.57;;;13.40;99.90;;;;;;2082389;28;20044;-68
2021/09/02 00:34:49;;;;;;;12.90;9.57;;;13.40;99.90;;;;;;2085231;28;20537;-69
2021/09/02 00:35:50;;;;;;;12.35;9.30;;;13.40;99.90;;;;;;2080450;28;20428;-69
2021/09/02 00:36:51;;;;;;;13.50;10.32;;;13.40;99.90;;;;;;2086287;28;20021;-69
2021/09/02 00:37:51;;;;;;;13.10;10.52;;;13.30;99.90;;;;;;2088225;28;20056;-69
2021/09/02 00:38:52;;;;;;;10.68;9.43;;;13.30;99.90;;;;;;2088461;28;20031;-69
2021/09/02 00:39:52;;;;;;;13.95;9.50;;;13.30;99.90;;;;;;2088363;28;20021;-69
2021/09/02 00:40:53;;;;;;;13.57;9.82;;;13.30;99.90;;;;;;2088745;28;20122;-69
2021/09/02 00:41:54;;;;;;;12.27;9.20;;;13.30;99.90;;;;;;2086694;28;20022;-69
2021/09/02 00:42:54;;;;;;;12.23;9.00;;;13.30;99.90;;;;;;2085419;28;20104;-69
2021/09/02 00:43:55;;;;;;;11.00;9.90;;;13.30;99.90;;;;;;2080265;28;20082;-69
2021/09/02 00:44:56;;;;;;;11.95;9.90;;;13.30;99.90;;;;;;2080065;28;20535;-69
2021/09/02 00:45:56;;;;;;;17.02;10.00;;;13.20;99.90;;;;;;2082467;28;20025;-69
2021/09/02 00:46:57;;;;;;;11.85;9.00;;;13.20;99.90;;;;;;2080207;28;20021;-69
2021/09/02 00:47:58;;;;;;;11.48;9.20;;;13.20;99.90;;;;;;2084194;28;20057;-69
2021/09/02 00:48:58;;;;;;;10.25;9.05;;;13.20;99.90;;;;;;2090909;28;20017;-69
2021/09/02 00:49:59;;;;;;;12.48;9.15;;;13.20;99.90;;;;;;2081361;28;20025;-69
2021/09/02 00:51:00;;;;;;;10.10;8.93;;;13.20;99.90;;;;;;2079877;28;20018;-69
2021/09/02 00:52:01;;;;;;;13.07;9.23;;;13.20;99.90;;;;;;2079811;28;20036;-69
2021/09/02 00:53:03;;;;;;;11.25;9.00;;;13.20;99.90;;;;;;2079787;28;20021;-69
2021/09/02 00:54:03;;;;;;;10.35;9.30;;;13.20;99.90;;;;;;2080190;28;20028;-68
2021/09/02 00:55:07;;;;;;;8.85;7.97;;;13.20;99.90;;;;;;2080379;28;20032;-69
2021/09/02 00:56:07;;;;;;;9.43;7.88;;;13.20;99.90;;;;;;2081582;28;20409;-69
2021/09/02 00:57:12;;;;;;;11.40;8.48;;;13.20;99.90;;;;;;2087727;28;20029;-69
2021/09/02 00:58:12;;;;;;;11.00;8.73;;;13.10;99.90;;;;;;2080034;28;20026;-69
2021/09/02 00:59:13;;;;;;;11.00;9.38;;;13.10;99.90;;;;;;2080063;28;20510;-69
2021/09/02 01:00:17;;;;;;;9.63;8.63;;;13.10;99.90;;;;;;2079884;28;20021;-69
2021/09/02 01:01:18;;;;;;;11.90;9.60;;;13.10;99.90;;;;;;2080530;28;20137;-69
2021/09/02 01:02:23;;;;;;;13.65;9.02;;;13.10;99.90;;;;;;2086820;28;20028;-68
2021/09/02 01:03:23;;;;;;;12.88;9.20;;;13.10;99.90;;;;;;2079953;28;20040;-69
2021/09/02 01:04:24;;;;;;;10.95;9.02;;;13.10;99.90;;;;;;2079983;28;20496;-69
2021/09/02 01:05:25;;;;;;;10.20;9.13;;;13.10;99.90;;;;;;2080172;28;20052;-69
2021/09/02 01:06:25;;;;;;;13.13;9.00;;;13.00;99.90;;;;;;2082847;28;20033;-69
2021/09/02 01:07:28;;;;;;;9.75;8.75;;;13.00;99.90;;;;;;2083872;28;20032;-69
2021/09/02 01:08:29;;;;;;;12.40;9.88;;;13.00;99.90;;;;;;2079916;28;20029;-69
2021/09/02 01:09:31;;;;;;;10.80;9.57;;;13.00;99.90;;;;;;2080112;28;20057;-69
2021/09/02 01:10:32;;;;;;;11.27;9.52;;;13.00;99.90;;;;;;2079781;28;20029;-69
2021/09/02 01:11:32;;;;;;;11.05;9.10;;;13.00;99.90;;;;;;2076337;28;20470;-69
2021/09/02 01:12:37;;;;;;;11.93;9.50;;;13.00;99.90;;;;;;2079158;28;20131;-69
2021/09/02 01:13:37;;;;;;;11.20;9.98;;;13.00;99.90;;;;;;2084095;28;20028;-69
2021/09/02 01:14:38;;;;;;;12.90;9.90;;;13.00;99.90;;;;;;2087843;28;20048;-69
2021/09/02 01:15:38;;;;;;;12.68;9.80;;;13.00;99.90;;;;;;2082575;28;20030;-69
2021/09/02 01:16:39;;;;;;;11.05;9.60;;;13.00;99.90;;;;;;2080036;28;20018;-69
2021/09/02 01:17:44;;;;;;;12.48;10.45;;;12.90;99.90;;;;;;2087071;28;20528;-69
2021/09/02 01:18:45;;;;;;;10.60;8.57;;;12.90;99.90;;;;;;2086982;28;20027;-69
2021/09/02 01:19:46;;;;;;;11.27;10.02;;;12.90;99.90;;;;;;2079620;28;20032;-69
2021/09/02 01:20:47;;;;;;;12.93;9.57;;;12.90;99.90;;;;;;2079749;28;20071;-69
2021/09/02 01:21:48;;;;;;;12.88;9.93;;;12.90;99.90;;;;;;2079799;28;20026;-69
2021/09/02 01:22:51;;;;;;;11.18;9.60;;;12.90;99.90;;;;;;2079598;28;20362;-68
2021/09/02 01:23:51;;;;;;;12.23;9.73;;;12.90;99.90;;;;;;2079875;28;20025;-69
2021/09/02 01:24:54;;;;;;;12.55;10.55;;;12.90;99.90;;;;;;2079787;28;20100;-69
2021/09/02 01:25:54;;;;;;;12.27;9.77;;;12.90;99.90;;;;;;2086501;28;20021;-69
2021/09/02 01:26:55;;;;;;;12.02;9.10;;;12.90;99.90;;;;;;2083311;28;20029;-69
2021/09/02 01:27:59;;;;;;;12.43;9.73;;;12.90;99.90;;;;;;2080084;28;20068;-69
2021/09/02 01:28:59;;;;;;;10.90;8.63;;;12.90;99.90;;;;;;2079579;28;20465;-69
2021/09/02 01:30:03;;;;;;;14.32;9.57;;;12.90;99.90;;;;;;2079870;28;20556;-69
2021/09/02 01:31:03;;;;;;;12.50;9.48;;;12.80;99.90;;;;;;2081087;28;20025;-69
2021/09/02 01:32:05;;;;;;;10.35;8.90;;;12.80;99.90;;;;;;2081137;28;20026;-69
2021/09/02 01:33:10;;;;;;;10.32;8.90;;;12.80;99.90;;;;;;2079604;28;20029;-69
2021/09/02 01:34:10;;;;;;;10.95;8.32;;;12.80;99.90;;;;;;2080107;28;20024;-69
2021/09/02 01:35:12;;;;;;;14.02;9.65;;;12.80;99.90;;;;;;2079652;28;20029;-69
2021/09/02 01:36:13;;;;;;;12.48;9.02;;;12.80;99.90;;;;;;2080990;28;20121;-69
2021/09/02 01:37:13;;;;;;;10.05;8.48;;;12.80;99.90;;;;;;2087917;28;20457;-69
2021/09/02 01:38:14;;;;;;;10.40;8.77;;;12.80;99.90;;;;;;2088027;28;20524;-69
2021/09/02 01:39:19;;;;;;;11.05;9.13;;;12.80;99.90;;;;;;2087054;28;20845;-69
2021/09/02 01:40:30;;;;;;;13.43;9.30;;;12.80;99.90;;;;;;2086290;28;20038;-69
2021/09/02 01:41:31;;;;;;;8.85;7.75;;;12.70;99.90;;;;;;2083076;28;20021;-69
2021/09/02 01:42:31;;;;;;;10.57;8.65;;;12.70;99.90;;;;;;2079883;28;20034;-69
2021/09/02 01:43:32;;;;;;;9.77;8.80;;;12.70;99.90;;;;;;2079399;28;20038;-69
2021/09/02 01:44:32;;;;;;;10.95;8.07;;;12.70;99.90;;;;;;2079764;28;20063;-69
2021/09/02 01:45:33;;;;;;;11.20;9.43;;;12.70;99.90;;;;;;2093684;28;20455;-69
2021/09/02 01:46:34;;;;;;;9.82;7.93;;;12.70;99.90;;;;;;2083799;28;20061;-69
2021/09/02 01:47:35;;;;;;;9.88;8.43;;;12.70;99.90;;;;;;2079830;28;20095;-69
2021/09/02 01:48:37;;;;;;;11.30;8.82;;;12.70;99.90;;;;;;2085799;28;20036;-69
2021/09/02 01:49:37;;;;;;;10.70;8.88;;;12.70;99.90;;;;;;2082970;28;20030;-69
2021/09/02 01:50:42;;;;;;;9.57;8.10;;;12.70;99.90;;;;;;2080016;28;20108;-69
2021/09/02 01:51:45;;;;;;;10.65;8.90;;;12.70;99.90;;;;;;2079576;28;20087;-69
2021/09/02 01:52:46;;;;;;;10.27;9.05;;;12.70;99.90;;;;;;2079331;28;20163;-69
2021/09/02 01:53:46;;;;;;;13.13;9.13;;;12.70;99.90;;;;;;2083801;28;20029;-69
2021/09/02 01:54:47;;;;;;;13.77;9.18;;;12.70;99.90;;;;;;2080657;28;20021;-69
2021/09/02 01:55:48;;;;;;;10.07;8.50;;;12.70;99.90;;;;;;2079271;28;20041;-69
2021/09/02 01:56:49;;;;;;;11.00;8.65;;;12.70;99.90;;;;;;2087280;28;20474;-69
2021/09/02 01:57:50;;;;;;;10.10;8.25;;;12.70;99.90;;;;;;2082421;28;20025;-69
2021/09/02 01:58:50;;;;;;;8.85;7.95;;;12.70;99.90;;;;;;2083413;28;20074;-69
2021/09/02 01:59:51;;;;;;;9.82;8.82;;;12.60;99.90;;;;;;2079820;28;20079;-69
2021/09/02 02:00:52;;;;;;;9.90;8.95;;;12.60;99.90;;;;;;2079458;28;20505;-69
2021/09/02 02:01:52;;;;;;;10.68;8.32;;;12.60;99.90;;;;;;2079468;28;20029;-69
2021/09/02 02:02:53;;;;;;;9.32;7.90;;;12.60;99.90;;;;;;2079470;28;20534;-69
2021/09/02 02:03:54;;;;;;;12.57;8.52;;;12.60;99.90;;;;;;2079719;28;20079;-69
2021/09/02 02:04:54;;;;;;;10.18;8.52;;;12.60;99.90;;;;;;2081028;28;20037;-69
2021/09/02 02:05:55;;;;;;;10.15;8.65;;;12.60;99.90;;;;;;2079530;28;20482;-69
2021/09/02 02:06:55;;;;;;;11.57;8.63;;;12.60;99.90;;;;;;2079490;28;20099;-69
2021/09/02 02:07:57;;;;;;;11.45;9.60;;;12.60;99.90;;;;;;2079769;28;20037;-69
2021/09/02 02:08:57;;;;;;;11.70;9.32;;;12.60;99.90;;;;;;2079816;28;20017;-69
2021/09/02 02:09:58;;;;;;;11.40;9.50;;;12.60;99.90;;;;;;2079246;28;20076;-69
2021/09/02 02:10:58;;;;;;;10.70;8.45;;;12.60;99.90;;;;;;2079792;28;20083;-69
2021/09/02 02:11:59;;;;;;;10.68;9.57;;;12.60;99.90;;;;;;2079930;28;20021;-69
2021/09/02 02:13:02;;;;;;;11.05;9.20;;;12.50;99.90;;;;;;2094787;28;20074;-69
2021/09/02 02:14:02;;;;;;;12.38;9.43;;;12.60;99.90;;;;;;2086381;28;20030;-69
2021/09/02 02:15:05;;;;;;;11.27;9.10;;;12.50;99.90;;;;;;2081762;28;20030;-69
2021/09/02 02:16:05;;;;;;;12.50;9.00;;;12.50;99.90;;;;;;2081306;28;20029;-69
2021/09/02 02:17:06;;;;;;;13.30;9.13;;;12.50;99.90;;;;;;2081195;28;20032;-69
2021/09/02 02:18:07;;;;;;;9.82;8.50;;;12.50;99.90;;;;;;2081270;28;20032;-69
2021/09/02 02:19:08;;;;;;;11.50;9.40;;;12.50;99.90;;;;;;2086898;28;20473;-69
2021/09/02 02:20:10;;;;;;;11.02;8.25;;;12.50;99.90;;;;;;2087463;28;20563;-69
2021/09/02 02:21:10;;;;;;;9.02;8.13;;;12.50;99.90;;;;;;2081490;28;20036;-69
2021/09/02 02:22:11;;;;;;;10.05;9.02;;;12.50;99.90;;;;;;2081079;28;20492;-69
2021/09/02 02:23:11;;;;;;;11.20;8.80;;;12.50;99.90;;;;;;2080841;28;20041;-69
2021/09/02 02:24:12;;;;;;;10.10;8.40;;;12.50;99.90;;;;;;2081395;28;20083;-69
2021/09/02 02:25:14;;;;;;;12.63;8.45;;;12.50;99.90;;;;;;2080939;28;20468;-69
2021/09/02 02:26:15;;;;;;;11.68;8.48;;;12.50;99.90;;;;;;2087992;28;20064;-69
2021/09/02 02:27:15;;;;;;;10.18;9.07;;;12.40;99.90;;;;;;2081958;28;20033;-69
2021/09/02 02:28:16;;;;;;;10.25;8.80;;;12.50;99.90;;;;;;2081094;28;20648;-69
2021/09/02 02:29:16;;;;;;;11.57;9.25;;;12.40;99.90;;;;;;2081306;28;20044;-69
2021/09/02 02:30:18;;;;;;;10.10;8.52;;;12.40;99.90;;;;;;2081336;28;20366;-69
2021/09/02 02:31:19;;;;;;;11.52;8.85;;;12.40;99.90;;;;;;2081048;28;20072;-69
2021/09/02 02:32:19;;;;;;;11.82;9.48;;;12.40;99.90;;;;;;2081428;28;20112;-69
2021/09/02 02:33:20;;;;;;;13.48;10.13;;;12.40;99.90;;;;;;2080545;28;20080;-69
2021/09/02 02:34:21;;;;;;;11.65;9.13;;;12.40;99.90;;;;;;2081188;28;20022;-69
2021/09/02 02:35:21;;;;;;;11.57;9.68;;;12.40;99.90;;;;;;2081085;28;20037;-69
2021/09/02 02:36:22;;;;;;;10.68;8.20;;;12.40;99.90;;;;;;2083714;28;20014;-69
2021/09/02 02:37:22;;;;;;;10.52;9.23;;;12.40;99.90;;;;;;2087482;28;20473;-69
2021/09/02 02:38:23;;;;;;;10.65;9.43;;;12.40;99.90;;;;;;2085125;28;20043;-69
2021/09/02 02:39:23;;;;;;;12.40;9.80;;;12.40;99.90;;;;;;2088939;28;20017;-69
2021/09/02 02:40:24;;;;;;;13.23;9.57;;;12.30;99.90;;;;;;2091136;28;20025;-69
2021/09/02 02:41:25;;;;;;;11.48;10.10;;;12.30;99.90;;;;;;2088442;28;20083;-69
2021/09/02 02:42:25;;;;;;;12.82;10.02;;;12.40;99.90;;;;;;2083813;28;20397;-69
2021/09/02 02:43:26;;;;;;;12.93;9.48;;;12.30;99.90;;;;;;2082470;28;20048;-69
2021/09/02 02:44:26;;;;;;;12.18;9.90;;;12.30;99.90;;;;;;2081554;28;20510;-69
2021/09/02 02:45:27;;;;;;;10.50;9.40;;;12.30;99.90;;;;;;2080800;28;20037;-69
2021/09/02 02:46:27;;;;;;;14.13;11.02;;;12.30;99.90;;;;;;2081787;28;20041;-69
2021/09/02 02:47:28;;;;;;;13.80;10.27;;;12.30;99.90;;;;;;2088992;28;20124;-69
2021/09/02 02:48:29;;;;;;;11.98;10.68;;;12.30;99.90;;;;;;2081500;28;20044;-69
2021/09/02 02:49:29;;;;;;;13.52;10.90;;;12.30;99.90;;;;;;2080954;28;20029;-69
2021/09/02 02:50:30;;;;;;;14.05;10.23;;;12.30;99.90;;;;;;2081481;28;20025;-69
2021/09/02 02:51:31;;;;;;;11.05;9.50;;;12.30;99.90;;;;;;2080733;28;20850;-69
2021/09/02 02:52:31;;;;;;;12.35;10.30;;;12.30;99.90;;;;;;2081112;28;20492;-69
2021/09/02 02:53:32;;;;;;;10.85;9.38;;;12.30;99.90;;;;;;2085183;28;20477;-69
2021/09/02 02:54:33;;;;;;;10.90;9.63;;;12.30;99.90;;;;;;2088790;28;20022;-69
2021/09/02 02:55:33;;;;;;;10.93;9.75;;;12.30;99.90;;;;;;2086604;28;21059;-69
2021/09/02 02:56:34;;;;;;;12.88;9.80;;;12.30;99.90;;;;;;2086541;28;20028;-69
2021/09/02 02:57:34;;;;;;;12.60;10.48;;;12.30;99.90;;;;;;2086774;28;20053;-69
2021/09/02 02:58:35;;;;;;;13.43;10.57;;;12.20;99.90;;;;;;2080958;28;20485;-69
2021/09/02 02:59:36;;;;;;;14.75;10.27;;;12.30;99.90;;;;;;2081055;28;20155;-69
2021/09/02 03:00:36;;;;;;;11.18;9.98;;;12.20;99.90;;;;;;2080878;28;20057;-69
2021/09/02 03:01:37;;;;;;;12.05;10.10;;;12.20;99.90;;;;;;2087598;28;20481;-69
2021/09/02 03:02:38;;;;;;;14.38;10.43;;;12.20;99.90;;;;;;2084571;28;20029;-69
2021/09/02 03:03:38;;;;;;;14.68;9.98;;;12.20;99.90;;;;;;2081194;28;20030;-69
2021/09/02 03:04:39;;;;;;;15.45;11.75;;;12.20;99.90;;;;;;2080741;28;20029;-69
2021/09/02 03:05:40;;;;;;;12.02;10.80;;;12.20;99.90;;;;;;2081013;28;20075;-69
2021/09/02 03:06:40;;;;;;;12.77;10.63;;;12.20;99.90;;;;;;2081044;28;20025;-69
2021/09/02 03:07:41;;;;;;;12.30;10.32;;;12.20;99.90;;;;;;2092142;28;20040;-69
2021/09/02 03:08:41;;;;;;;14.57;10.68;;;12.20;99.90;;;;;;2095967;28;20032;-69
2021/09/02 03:09:42;;;;;;;13.77;10.45;;;12.20;99.90;;;;;;2080655;28;20038;-69
2021/09/02 03:10:43;;;;;;;13.55;10.60;;;12.20;99.90;;;;;;2082643;28;20096;-69
2021/09/02 03:11:43;;;;;;;12.70;10.45;;;12.20;99.90;;;;;;2080369;28;20382;-69
2021/09/02 03:12:44;;;;;;;14.85;11.35;;;12.20;99.90;;;;;;2087405;28;20096;-69
2021/09/02 03:13:44;;;;;;;11.70;10.45;;;12.20;99.90;;;;;;2087906;28;20029;-69
2021/09/02 03:14:45;;;;;;;13.05;10.65;;;12.20;99.90;;;;;;2089211;28;20380;-69
2021/09/02 03:15:45;;;;;;;13.18;10.80;;;12.20;99.90;;;;;;2083636;28;20087;-69
2021/09/02 03:16:46;;;;;;;11.65;10.25;;;12.20;99.90;;;;;;2080779;28;20029;-69
2021/09/02 03:17:46;;;;;;;11.75;10.35;;;12.20;99.90;;;;;;2080892;28;20028;-69
2021/09/02 03:18:47;;;;;;;14.45;10.48;;;12.10;99.90;;;;;;2080233;28;20026;-69
2021/09/02 03:19:47;;;;;;;14.35;11.50;;;12.10;99.90;;;;;;2081187;28;20083;-69
2021/09/02 03:20:48;;;;;;;11.82;10.38;;;12.10;99.90;;;;;;2082388;28;20021;-69
2021/09/02 03:21:49;;;;;;;13.65;11.05;;;12.10;99.90;;;;;;2089488;28;20028;-69
2021/09/02 03:22:49;;;;;;;11.80;9.98;;;12.10;99.90;;;;;;2087966;28;20112;-69
2021/09/02 03:23:50;;;;;;;13.80;10.27;;;12.10;99.90;;;;;;2085244;28;20535;-69
2021/09/02 03:24:50;;;;;;;15.98;11.48;;;12.10;99.90;;;;;;2084221;28;20044;-69
2021/09/02 03:25:51;;;;;;;16.25;11.65;;;12.10;99.90;;;;;;2084729;28;20500;-69
2021/09/02 03:26:51;;;;;;;14.98;11.65;;;12.10;99.90;;;;;;2094498;28;20049;-69
2021/09/02 03:27:52;;;;;;;14.30;11.65;;;12.10;99.90;;;;;;2097519;28;20020;-69
2021/09/02 03:28:52;;;;;;;15.20;11.63;;;12.10;99.90;;;;;;2088982;28;20029;-69
2021/09/02 03:29:53;;;;;;;15.35;12.07;;;12.10;99.90;;;;;;2087641;28;20531;-69
2021/09/02 03:30:53;;;;;;;12.57;10.65;;;12.10;99.90;;;;;;2080866;28;20022;-69
2021/09/02 03:31:54;;;;;;;14.40;12.10;;;12.10;99.90;;;;;;2080388;28;20076;-69
2021/09/02 03:32:55;;;;;;;12.20;10.90;;;12.10;99.90;;;;;;2080507;28;20493;-69
2021/09/02 03:33:55;;;;;;;13.77;10.82;;;12.00;99.90;;;;;;2080574;28;20036;-69
2021/09/02 03:34:56;;;;;;;13.55;11.45;;;12.00;99.90;;;;;;2083116;28;20033;-69
2021/09/02 03:35:56;;;;;;;13.63;11.68;;;12.10;99.90;;;;;;2088139;28;20127;-69
2021/09/02 03:36:57;;;;;;;12.10;10.75;;;12.00;99.90;;;;;;2088954;28;20114;-69
2021/09/02 03:37:58;;;;;;;15.48;12.13;;;12.10;99.90;;;;;;2088837;28;20111;-69
2021/09/02 03:38:58;;;;;;;15.35;12.63;;;12.10;99.90;;;;;;2088981;28;20099;-69
2021/09/02 03:40:00;;;;;;;14.73;11.73;;;12.00;99.90;;;;;;2089019;28;20025;-69
2021/09/02 03:41:00;;;;;;;12.77;10.85;;;12.00;99.90;;;;;;2089179;28;20024;-69
2021/09/02 03:42:01;;;;;;;12.77;11.43;;;12.00;99.90;;;;;;2088577;28;20055;-69
2021/09/02 03:43:01;;;;;;;15.35;12.65;;;12.00;99.90;;;;;;2085880;28;20092;-70
2021/09/02 03:44:02;;;;;;;12.90;11.55;;;12.00;99.90;;;;;;2089051;28;20025;-69
2021/09/02 03:45:03;;;;;;;14.82;11.30;;;12.00;99.90;;;;;;2081907;28;20049;-69
2021/09/02 03:46:04;;;;;;;12.82;11.07;;;12.00;99.90;;;;;;2080326;28;20433;-69
2021/09/02 03:47:05;;;;;;;13.57;10.82;;;12.00;99.90;;;;;;2088739;28;20104;-69
2021/09/02 03:48:05;;;;;;;11.88;10.68;;;12.00;99.90;;;;;;2083496;28;20040;-69
2021/09/02 03:49:06;;;;;;;13.48;10.70;;;12.00;99.90;;;;;;2080631;28;20030;-69
2021/09/02 03:50:07;;;;;;;15.27;11.25;;;12.00;99.90;;;;;;2080784;28;20041;-69
2021/09/02 03:51:08;;;;;;;15.75;10.95;;;12.00;99.90;;;;;;2080863;28;20835;-69
2021/09/02 03:52:09;;;;;;;13.07;11.55;;;12.00;99.90;;;;;;2080402;28;20030;-70
2021/09/02 03:53:09;;;;;;;14.50;11.27;;;12.00;99.90;;;;;;2080289;28;20421;-69
2021/09/02 03:54:10;;;;;;;13.43;11.00;;;12.00;99.90;;;;;;2080489;28;20028;-69
2021/09/02 03:55:12;;;;;;;11.27;10.02;;;12.00;99.90;;;;;;2080687;28;20033;-69
2021/09/02 03:56:12;;;;;;;13.85;10.27;;;12.00;99.90;;;;;;2082941;28;20493;-69
2021/09/02 03:57:13;;;;;;;12.13;10.40;;;11.90;99.90;;;;;;2093872;28;20105;-69
2021/09/02 03:58:13;;;;;;;13.88;11.10;;;12.00;99.90;;;;;;2080677;28;20041;-69
2021/09/02 03:59:14;;;;;;;14.25;11.73;;;11.90;99.90;;;;;;2080483;28;20021;-70
2021/09/02 04:00:14;;;;;;;14.68;10.82;;;11.90;99.90;;;;;;2080295;28;20059;-70
2021/09/02 04:01:15;;;;;;;15.07;10.75;;;11.90;99.90;;;;;;2080465;28;20030;-70
2021/09/02 04:02:16;;;;;;;12.10;10.27;;;11.90;99.90;;;;;;2080601;28;20080;-69
2021/09/02 04:03:16;;;;;;;13.13;10.80;;;11.90;99.90;;;;;;2080292;28;20072;-70
2021/09/02 04:04:17;;;;;;;11.63;10.18;;;11.90;99.90;;;;;;2080501;28;20030;-69
2021/09/02 04:05:17;;;;;;;13.27;11.10;;;11.90;99.90;;;;;;2080270;28;20056;-69
2021/09/02 04:06:18;;;;;;;14.65;10.55;;;11.90;99.90;;;;;;2080324;28;20595;-69
2021/09/02 04:07:18;;;;;;;11.13;9.90;;;11.90;99.90;;;;;;2079811;28;20068;-70
2021/09/02 04:08:19;;;;;;;12.85;10.68;;;11.90;99.90;;;;;;2080035;28;20037;-69
2021/09/02 04:09:19;;;;;;;12.20;10.13;;;11.90;99.90;;;;;;2080274;28;20053;-69
2021/09/02 04:10:20;;;;;;;15.88;11.13;;;11.90;99.90;;;;;;2085333;28;20073;-69
2021/09/02 04:11:21;;;;;;;13.90;10.38;;;11.90;99.90;;;;;;2082090;28;20117;-70
2021/09/02 04:12:21;;;;;;;15.45;11.00;;;11.90;99.90;;;;;;2083922;28;20033;-69
2021/09/02 04:13:22;;;;;;;13.52;11.10;;;11.90;99.90;;;;;;2080158;28;20017;-70
2021/09/02 04:14:22;;;;;;;11.88;10.63;;;11.80;99.90;;;;;;2080429;28;20075;-69
2021/09/02 04:15:23;;;;;;;12.13;10.40;;;11.90;99.90;;;;;;2080288;28;20021;-70
2021/09/02 04:16:23;;;;;;;11.52;9.90;;;11.80;99.90;;;;;;2080703;28;20022;-70
2021/09/02 04:17:24;;;;;;;13.18;9.80;;;11.80;99.90;;;;;;2080123;28;20029;-70
2021/09/02 04:18:24;;;;;;;13.60;11.25;;;11.80;99.90;;;;;;2080523;28;20060;-70
2021/09/02 04:19:25;;;;;;;14.43;10.57;;;11.80;99.90;;;;;;2080513;28;20400;-70
2021/09/02 04:20:26;;;;;;;13.48;11.63;;;11.80;99.90;;;;;;2080726;28;20048;-70
2021/09/02 04:21:27;;;;;;;13.10;11.52;;;11.80;99.90;;;;;;2080103;28;20109;-70
2021/09/02 04:22:27;;;;;;;12.13;10.63;;;11.80;99.90;;;;;;2080245;28;20714;-70
2021/09/02 04:23:28;;;;;;;13.88;10.60;;;11.80;99.90;;;;;;2080019;28;20095;-70
2021/09/02 04:24:28;;;;;;;13.30;11.90;;;11.80;99.90;;;;;;2095296;28;20020;-69
2021/09/02 04:25:29;;;;;;;12.48;10.50;;;11.80;99.90;;;;;;2087091;28;20072;-69
2021/09/02 04:26:29;;;;;;;14.35;10.35;;;11.80;99.90;;;;;;2087965;28;20397;-70
2021/09/02 04:27:30;;;;;;;13.18;11.43;;;11.80;99.90;;;;;;2080340;28;20032;-70
2021/09/02 04:28:31;;;;;;;11.35;10.13;;;11.80;99.90;;;;;;2080372;28;20559;-70
2021/09/02 04:29:31;;;;;;;14.27;11.93;;;11.80;99.90;;;;;;2079845;28;20037;-70
2021/09/02 04:30:32;;;;;;;13.68;11.25;;;11.80;99.90;;;;;;2080599;28;20025;-70
2021/09/02 04:31:33;;;;;;;13.57;10.20;;;11.80;99.90;;;;;;2079987;28;20033;-70
2021/09/02 04:32:33;;;;;;;12.38;10.40;;;11.80;99.90;;;;;;2086077;28;20036;-70
2021/09/02 04:33:34;;;;;;;11.43;10.07;;;11.80;99.90;;;;;;2083250;28;20405;-69
2021/09/02 04:34:35;;;;;;;12.45;9.80;;;11.80;99.90;;;;;;2079964;28;20696;-70
2021/09/02 04:35:35;;;;;;;11.55;10.35;;;11.80;99.90;;;;;;2079860;28;20101;-70
2021/09/02 04:36:36;;;;;;;12.30;10.35;;;11.80;99.90;;;;;;2083546;28;20103;-70
2021/09/02 04:37:42;;;;;;;12.05;10.63;;;11.80;99.90;;;;;;2090998;28;20082;-70
2021/09/02 04:38:42;;;;;;;13.38;10.52;;;11.80;99.90;;;;;;2080576;28;20473;-70
2021/09/02 04:39:43;;;;;;;11.45;10.02;;;11.80;99.90;;;;;;2081970;28;20572;-70
2021/09/02 04:40:43;;;;;;;13.88;10.90;;;11.70;99.90;;;;;;2088600;28;20025;-70
2021/09/02 04:41:45;;;;;;;12.65;10.55;;;11.70;99.90;;;;;;2081989;28;20484;-71
2021/09/02 04:42:45;;;;;;;11.63;10.25;;;11.80;99.90;;;;;;2079584;28;20601;-70
2021/09/02 04:43:46;;;;;;;12.93;11.43;;;11.80;99.90;;;;;;2080332;28;20979;-70
2021/09/02 04:44:46;;;;;;;12.93;10.48;;;11.70;99.90;;;;;;2079905;28;20087;-70
2021/09/02 04:45:47;;;;;;;12.27;10.90;;;11.70;99.90;;;;;;2080245;28;20423;-70
2021/09/02 04:46:48;;;;;;;14.73;11.60;;;11.80;99.90;;;;;;2085854;28;20048;-70
2021/09/02 04:47:50;;;;;;;14.32;10.90;;;11.70;99.90;;;;;;2085376;28;20100;-70
2021/09/02 04:48:50;;;;;;;12.07;10.75;;;11.80;99.90;;;;;;2080272;28;20029;-70
2021/09/02 04:49:51;;;;;;;13.57;10.23;;;11.80;99.90;;;;;;2080142;28;20033;-70
2021/09/02 04:50:51;;;;;;;14.52;10.82;;;11.80;99.90;;;;;;2079441;28;20025;-70
2021/09/02 04:51:52;;;;;;;14.13;11.50;;;11.80;99.90;;;;;;2094669;28;20063;-70
2021/09/02 04:52:53;;;;;;;12.10;10.38;;;11.80;99.90;;;;;;2086288;28;20030;-70
2021/09/02 04:53:53;;;;;;;14.55;10.88;;;11.80;99.90;;;;;;2085042;28;20025;-70
2021/09/02 04:54:55;;;;;;;13.80;10.43;;;11.80;99.90;;;;;;2079987;28;20465;-70
2021/09/02 04:55:56;;;;;;;13.18;10.85;;;11.80;99.90;;;;;;2080325;28;20036;-70
2021/09/02 04:56:56;;;;;;;13.55;10.88;;;11.80;99.90;;;;;;2088289;28;20032;-70
2021/09/02 04:57:57;;;;;;;11.55;10.38;;;11.80;99.90;;;;;;2081233;28;20672;-70
2021/09/02 04:58:57;;;;;;;11.70;10.50;;;11.80;99.90;;;;;;2079087;28;20048;-70
2021/09/02 04:59:57;;;;;;;11.93;10.40;;;11.80;99.90;;;;;;2080328;28;20053;-70
2021/09/02 05:00:58;;;;;;;11.88;10.60;;;11.80;99.90;;;;;;2079900;28;20029;-70
2021/09/02 05:01:59;;;;;;;11.50;10.30;;;11.80;99.90;;;;;;2080107;28;20018;-70
2021/09/02 05:02:59;;;;;;;13.38;11.45;;;11.80;99.90;;;;;;2079535;28;20097;-70
2021/09/02 05:04:00;;;;;;;11.43;9.57;;;11.80;99.90;;;;;;2080288;28;20022;-70
2021/09/02 05:05:00;;;;;;;11.50;10.30;;;11.80;99.90;;;;;;2085440;28;20071;-70
2021/09/02 05:06:01;;;;;;;12.13;10.77;;;11.90;99.90;;;;;;2088493;28;20526;-70
2021/09/02 05:07:02;;;;;;;13.15;10.65;;;11.90;99.90;;;;;;2086971;28;20131;-70
2021/09/02 05:08:03;;;;;;;15.45;11.75;;;11.90;99.90;;;;;;2079927;28;20384;-70
2021/09/02 05:09:04;;;;;;;12.77;11.07;;;11.90;99.90;;;;;;2079887;28;20067;-70
2021/09/02 05:10:06;;;;;;;13.75;10.43;;;11.90;99.90;;;;;;2080302;28;20484;-70
2021/09/02 05:11:06;;;;;;;12.23;10.73;;;11.90;99.90;;;;;;2079885;28;20024;-70